Aviation Digital Data Service (ADDS)

Output produced by METARs form (0017 UTC 02 September 2015)
found at http://www.aviationweather.gov/adds/metars/
 
KEWR 012323Z 0200/0306 15008KT P6SM FEW050 
     FM020300 VRB04KT P6SM FEW050 
     FM021300 18005KT P6SM FEW050 
     FM021700 15010KT P6SM SCT050 
     FM030300 VRB05KT P6SM FEW050